Time;durP1;ratioP1;P1;durP2;ratioP2;P2;SDS_P1;SDS_P2;PMS_P1;PMS_P2;Temp;Humidity;BMP_temperature;BMP_pressure;BME280_temperature;BME280_humidity;BME280_pressure;Samples;Min_cycle;Max_cycle;Signal;HPM_P1;HPM_P2
2021/07/25 00:01:08;;;;;;;28.88;16.85;;;19.40;99.90;;;;;;5012349;28;20659;-71
2021/07/25 00:03:36;;;;;;;27.38;17.52;;;19.30;99.90;;;;;;5013062;28;20211;-71
2021/07/25 00:06:02;;;;;;;26.70;18.23;;;19.20;99.90;;;;;;5013256;28;20230;-71
2021/07/25 00:08:30;;;;;;;25.67;17.63;;;19.20;99.90;;;;;;5013106;28;20363;-71
2021/07/25 00:10:58;;;;;;;24.92;17.63;;;19.20;99.90;;;;;;5013198;28;20192;-71
2021/07/25 00:13:25;;;;;;;28.92;18.75;;;19.20;99.90;;;;;;5013211;28;20212;-71
2021/07/25 00:15:52;;;;;;;28.67;18.70;;;19.10;99.90;;;;;;5013133;28;20626;-71
2021/07/25 00:18:19;;;;;;;27.70;19.13;;;19.20;99.90;;;;;;5012873;28;20725;-71
2021/07/25 00:20:45;;;;;;;27.23;18.02;;;19.20;99.90;;;;;;5013118;28;20203;-71
2021/07/25 00:23:17;;;;;;;26.42;19.33;;;19.20;99.90;;;;;;5013188;28;20697;-71
2021/07/25 00:25:46;;;;;;;31.27;20.55;;;19.30;99.90;;;;;;5013032;28;20216;-71
2021/07/25 00:28:17;;;;;;;28.40;19.25;;;19.20;99.90;;;;;;5013040;28;20224;-71
2021/07/25 00:30:45;;;;;;;28.23;19.95;;;19.20;99.90;;;;;;5012488;28;20199;-71
2021/07/25 00:33:12;;;;;;;32.63;21.38;;;19.30;99.90;;;;;;5013087;28;20200;-71
2021/07/25 00:35:39;;;;;;;28.90;20.52;;;19.30;99.90;;;;;;5012716;28;20638;-71
2021/07/25 00:38:07;;;;;;;33.22;20.80;;;19.30;99.90;;;;;;5013175;28;20236;-71
2021/07/25 00:40:38;;;;;;;26.85;20.35;;;19.30;99.90;;;;;;5008992;28;20200;-71
2021/07/25 00:43:05;;;;;;;28.40;21.50;;;19.30;99.90;;;;;;5010051;28;20257;-71
2021/07/25 00:45:33;;;;;;;27.60;21.23;;;19.30;99.90;;;;;;5007715;28;20634;-71
2021/07/25 00:48:01;;;;;;;33.00;21.95;;;19.30;99.90;;;;;;5007526;28;20610;-71
2021/07/25 00:50:28;;;;;;;28.48;22.15;;;19.30;99.90;;;;;;5007480;28;20215;-71
2021/07/25 00:52:55;;;;;;;31.27;22.90;;;19.30;99.90;;;;;;5007320;28;20500;-71
2021/07/25 00:55:22;;;;;;;32.10;23.30;;;19.30;99.90;;;;;;5003894;28;20208;-71
2021/07/25 00:57:49;;;;;;;31.58;22.73;;;19.30;99.90;;;;;;5010192;28;20212;-71
2021/07/25 01:00:17;;;;;;;32.55;22.10;;;19.30;99.90;;;;;;5011718;28;20196;-71
2021/07/25 01:02:59;;;;;;;33.08;24.23;;;19.30;99.90;;;;;;5012752;28;20646;-71
2021/07/25 01:05:39;;;;;;;34.10;24.55;;;19.20;99.90;;;;;;5012290;28;20216;-71
2021/07/25 01:08:14;;;;;;;32.28;23.33;;;19.20;99.90;;;;;;5012701;28;20577;-71
2021/07/25 01:10:44;;;;;;;30.98;24.13;;;19.20;99.90;;;;;;4994917;28;20200;-71
2021/07/25 01:13:15;;;;;;;31.50;23.85;;;19.20;99.90;;;;;;5012433;28;20215;-71
2021/07/25 01:15:43;;;;;;;32.20;24.17;;;19.10;99.90;;;;;;5013021;28;20192;-71
2021/07/25 01:18:11;;;;;;;32.22;23.35;;;19.20;99.90;;;;;;5016595;28;20209;-71
2021/07/25 01:20:40;;;;;;;32.15;24.35;;;19.20;99.90;;;;;;5015842;28;20200;-71
2021/07/25 01:23:06;;;;;;;30.17;23.90;;;19.20;99.90;;;;;;5016517;28;20214;-71
2021/07/25 01:25:35;;;;;;;30.63;22.55;;;19.20;99.90;;;;;;5016059;28;20228;-71
2021/07/25 01:28:07;;;;;;;31.98;22.80;;;19.30;99.90;;;;;;5010245;28;20577;-71
2021/07/25 01:30:36;;;;;;;29.73;23.92;;;19.20;99.90;;;;;;5015753;28;20215;-71
2021/07/25 01:33:08;;;;;;;34.28;24.50;;;19.30;99.90;;;;;;5016096;28;20684;-71
2021/07/25 01:35:36;;;;;;;32.10;23.65;;;19.20;99.90;;;;;;5015667;28;20637;-71
2021/07/25 01:38:07;;;;;;;38.05;25.63;;;19.20;99.90;;;;;;5016146;28;20210;-71
2021/07/25 01:40:34;;;;;;;37.53;24.05;;;19.20;99.90;;;;;;5015305;28;20657;-71
2021/07/25 01:43:01;;;;;;;36.33;25.65;;;19.00;99.90;;;;;;5015590;28;20564;-71
2021/07/25 01:45:28;;;;;;;31.73;24.10;;;19.10;99.90;;;;;;5015457;28;20231;-71
2021/07/25 01:47:55;;;;;;;31.02;23.35;;;18.90;99.90;;;;;;5015739;28;20208;-71
2021/07/25 01:50:22;;;;;;;36.13;25.05;;;18.80;99.90;;;;;;5015781;28;20669;-71
2021/07/25 01:52:49;;;;;;;37.42;25.08;;;18.80;99.90;;;;;;5015880;28;20204;-71
2021/07/25 01:55:17;;;;;;;32.45;23.88;;;18.70;99.90;;;;;;5015279;28;20196;-71
2021/07/25 01:57:44;;;;;;;34.33;24.40;;;18.60;99.90;;;;;;5015687;28;20563;-71
2021/07/25 02:00:11;;;;;;;38.50;25.50;;;18.60;99.90;;;;;;5015226;28;20617;-71
2021/07/25 02:02:38;;;;;;;32.15;23.63;;;18.60;99.90;;;;;;5015965;28;20568;-71
2021/07/25 02:05:06;;;;;;;37.40;24.13;;;18.60;99.90;;;;;;5015372;28;20204;-71
2021/07/25 02:07:33;;;;;;;34.53;25.27;;;18.60;99.90;;;;;;5015427;28;20202;-71
2021/07/25 02:10:00;;;;;;;38.22;26.70;;;18.50;99.90;;;;;;5015072;28;20203;-71
2021/07/25 02:12:28;;;;;;;37.30;28.52;;;18.50;99.90;;;;;;5015723;28;20200;-71
2021/07/25 02:14:55;;;;;;;34.60;26.80;;;18.50;99.90;;;;;;5014949;28;20212;-71
2021/07/25 02:17:22;;;;;;;37.10;27.73;;;18.40;99.90;;;;;;5015124;28;20189;-71
2021/07/25 02:19:48;;;;;;;37.50;26.10;;;18.30;99.90;;;;;;5015007;28;20200;-71
2021/07/25 02:22:16;;;;;;;34.53;25.73;;;18.40;99.90;;;;;;5015268;28;20200;-71
2021/07/25 02:24:43;;;;;;;31.27;25.25;;;18.40;99.90;;;;;;5014846;28;20255;-71
2021/07/25 02:27:10;;;;;;;31.98;24.77;;;18.30;99.90;;;;;;5015227;28;20220;-71
2021/07/25 02:29:38;;;;;;;34.03;25.23;;;18.30;99.90;;;;;;5015028;28;20204;-71
2021/07/25 02:32:05;;;;;;;39.33;26.92;;;18.30;99.90;;;;;;5003088;28;20204;-71
2021/07/25 02:34:32;;;;;;;35.35;25.88;;;18.30;99.90;;;;;;5008660;28;20205;-71
2021/07/25 02:36:59;;;;;;;31.75;24.98;;;18.30;99.90;;;;;;5009747;28;20216;-71
2021/07/25 02:39:26;;;;;;;35.08;24.85;;;18.40;99.90;;;;;;5017702;28;20196;-71
2021/07/25 02:41:53;;;;;;;32.45;24.75;;;18.40;99.90;;;;;;5012912;28;20204;-71
2021/07/25 02:44:20;;;;;;;33.35;26.05;;;18.30;99.90;;;;;;5015183;28;20207;-71
2021/07/25 02:46:48;;;;;;;34.63;24.88;;;18.30;99.90;;;;;;5012383;28;20224;-71
2021/07/25 02:49:16;;;;;;;34.47;24.75;;;18.30;99.90;;;;;;5012166;28;20215;-71
2021/07/25 02:51:43;;;;;;;34.53;26.23;;;18.30;99.90;;;;;;5012417;28;20212;-71
2021/07/25 02:54:10;;;;;;;30.35;23.27;;;18.20;99.90;;;;;;5011846;28;20204;-71
2021/07/25 02:56:37;;;;;;;32.92;24.15;;;18.10;99.90;;;;;;5021564;28;20196;-71
2021/07/25 02:59:04;;;;;;;34.15;24.40;;;18.10;99.90;;;;;;5019890;28;20204;-71
2021/07/25 03:01:31;;;;;;;33.22;24.55;;;18.00;99.90;;;;;;5013478;28;20226;-71
2021/07/25 03:03:59;;;;;;;32.03;23.30;;;18.00;99.90;;;;;;5008603;28;20205;-71
2021/07/25 03:06:26;;;;;;;32.20;24.67;;;17.80;99.90;;;;;;5013684;28;20234;-71
2021/07/25 03:08:53;;;;;;;32.47;23.63;;;17.80;99.90;;;;;;5011926;28;20214;-71
2021/07/25 03:11:21;;;;;;;30.63;23.42;;;17.70;99.90;;;;;;5015024;28;20207;-71
2021/07/25 03:13:48;;;;;;;31.63;24.20;;;17.70;99.90;;;;;;5005010;28;20216;-71
2021/07/25 03:16:15;;;;;;;34.33;24.38;;;17.60;99.90;;;;;;4994614;28;20207;-71
2021/07/25 03:18:42;;;;;;;33.42;24.83;;;17.60;99.90;;;;;;5002323;28;20200;-71
2021/07/25 03:21:10;;;;;;;34.00;23.58;;;17.60;99.90;;;;;;5011740;28;20556;-71
2021/07/25 03:23:37;;;;;;;31.77;23.98;;;17.60;99.90;;;;;;5012942;28;20200;-71
2021/07/25 03:26:04;;;;;;;38.28;19.70;;;17.60;99.90;;;;;;5009982;28;20228;-71
2021/07/25 03:28:31;;;;;;;36.72;19.65;;;17.10;99.90;;;;;;5013180;28;20210;-71
2021/07/25 03:30:57;;;;;;;37.55;21.05;;;16.70;99.90;;;;;;5011092;28;20207;-71
2021/07/25 03:33:24;;;;;;;32.30;20.42;;;16.70;99.90;;;;;;5014232;28;20231;-71
2021/07/25 03:35:51;;;;;;;31.08;23.45;;;16.80;99.90;;;;;;5004537;28;20200;-71
2021/07/25 03:38:20;;;;;;;38.50;24.20;;;17.00;99.90;;;;;;5016020;28;20220;-71
2021/07/25 03:40:47;;;;;;;31.90;24.75;;;17.10;99.90;;;;;;5003918;28;20542;-71
2021/07/25 03:43:15;;;;;;;35.70;25.85;;;17.10;99.90;;;;;;5020063;28;20199;-71
2021/07/25 03:45:44;;;;;;;37.88;26.63;;;17.10;99.90;;;;;;5025750;28;20203;-71
2021/07/25 03:48:11;;;;;;;34.40;26.58;;;17.20;99.90;;;;;;5012713;28;20204;-71
2021/07/25 03:50:40;;;;;;;33.15;25.48;;;17.20;99.90;;;;;;5012723;28;20212;-71
2021/07/25 03:53:08;;;;;;;30.25;16.75;;;17.30;99.90;;;;;;5012713;28;20215;-71
2021/07/25 03:55:37;;;;;;;23.38;12.02;;;17.20;99.90;;;;;;5013633;28;20210;-71
2021/07/25 03:58:04;;;;;;;72.38;14.65;;;16.80;99.90;;;;;;5012594;28;20208;-71
2021/07/25 04:00:32;;;;;;;22.73;16.50;;;16.50;99.90;;;;;;5011914;28;20200;-71
2021/07/25 04:02:59;;;;;;;70.85;21.73;;;16.60;99.90;;;;;;5007720;28;20303;-71
2021/07/25 04:05:25;;;;;;;35.35;24.33;;;16.60;99.90;;;;;;5012095;28;20208;-71
2021/07/25 04:07:52;;;;;;;36.42;23.63;;;16.90;99.90;;;;;;5010664;28;20216;-71
2021/07/25 04:10:19;;;;;;;32.00;23.60;;;17.20;99.90;;;;;;5016978;28;20649;-71
2021/07/25 04:12:48;;;;;;;34.20;24.65;;;17.00;99.90;;;;;;5010141;28;20196;-71
2021/07/25 04:15:15;;;;;;;35.80;24.52;;;17.10;99.90;;;;;;5016287;28;20194;-71
2021/07/25 04:17:42;;;;;;;35.80;23.48;;;17.50;99.90;;;;;;5010490;28;20215;-71
2021/07/25 04:20:10;;;;;;;33.17;22.85;;;17.50;99.90;;;;;;5018054;28;20296;-71
2021/07/25 04:22:39;;;;;;;31.13;22.55;;;17.50;99.90;;;;;;5012800;28;20200;-71
2021/07/25 04:25:07;;;;;;;33.05;21.52;;;17.40;99.90;;;;;;5012647;28;20654;-71
2021/07/25 04:27:35;;;;;;;32.03;22.05;;;17.40;99.90;;;;;;5011136;28;20247;-71
2021/07/25 04:30:05;;;;;;;30.33;22.20;;;17.40;99.90;;;;;;5013077;28;20208;-71
2021/07/25 04:32:32;;;;;;;33.80;24.52;;;17.50;99.90;;;;;;5011717;28;20208;-71
2021/07/25 04:34:59;;;;;;;38.97;20.35;;;17.50;99.90;;;;;;5011429;28;20207;-71
2021/07/25 04:37:28;;;;;;;30.58;20.63;;;17.80;99.90;;;;;;5014877;28;20200;-71
2021/07/25 04:39:55;;;;;;;32.13;18.70;;;17.80;99.90;;;;;;5010362;28;20576;-71
2021/07/25 04:42:24;;;;;;;37.67;20.67;;;17.60;99.90;;;;;;5013214;28;20219;-71
2021/07/25 04:44:55;;;;;;;37.80;20.23;;;17.70;99.90;;;;;;5009917;28;20215;-71
2021/07/25 04:47:35;;;;;;;34.55;17.73;;;17.70;99.90;;;;;;5012727;28;20724;-71
2021/07/25 04:50:05;;;;;;;37.08;18.65;;;17.70;99.90;;;;;;5012071;28;20200;-71
2021/07/25 04:52:38;;;;;;;34.22;18.10;;;17.80;99.90;;;;;;5012203;28;20204;-71
2021/07/25 04:55:07;;;;;;;40.65;21.23;;;18.00;99.90;;;;;;5010366;28;20212;-71
2021/07/25 04:57:40;;;;;;;39.00;21.42;;;18.20;99.90;;;;;;5011894;28;20204;-71
2021/07/25 05:00:09;;;;;;;34.88;22.60;;;18.20;99.90;;;;;;5012073;28;20215;-71
2021/07/25 05:02:39;;;;;;;30.73;23.02;;;18.20;99.90;;;;;;5012966;28;20209;-71
2021/07/25 05:05:07;;;;;;;28.63;22.05;;;18.10;99.90;;;;;;5012153;28;20208;-71
2021/07/25 05:07:39;;;;;;;28.80;22.98;;;18.10;99.90;;;;;;5013425;28;20230;-71
2021/07/25 05:10:08;;;;;;;30.08;21.50;;;18.20;99.90;;;;;;5011153;28;20215;-71
2021/07/25 05:12:41;;;;;;;29.77;22.67;;;18.30;99.90;;;;;;5015146;28;20207;-71
2021/07/25 05:15:14;;;;;;;28.75;23.02;;;18.20;99.90;;;;;;4997353;28;20216;-71
2021/07/25 05:17:44;;;;;;;29.83;20.77;;;18.30;99.90;;;;;;4989077;28;20207;-71
2021/07/25 05:20:15;;;;;;;35.80;22.75;;;18.40;99.90;;;;;;5012194;28;20740;-71
2021/07/25 05:22:49;;;;;;;29.10;21.20;;;18.50;99.90;;;;;;5012515;28;20204;-71
2021/07/25 05:25:18;;;;;;;28.17;21.33;;;18.50;99.90;;;;;;5012510;28;20240;-71
2021/07/25 05:27:48;;;;;;;33.63;21.35;;;18.60;99.90;;;;;;5011490;28;20286;-71
2021/07/25 05:30:17;;;;;;;30.90;19.83;;;18.70;99.90;;;;;;5011089;28;20208;-71
2021/07/25 05:32:46;;;;;;;26.92;19.40;;;18.70;99.90;;;;;;5010792;28;20211;-71
2021/07/25 05:35:13;;;;;;;26.80;19.13;;;18.90;99.90;;;;;;5012426;28;20208;-71
2021/07/25 05:37:40;;;;;;;25.33;19.75;;;19.40;99.90;;;;;;5012030;28;20199;-71
2021/07/25 05:40:09;;;;;;;29.52;20.25;;;19.50;99.90;;;;;;5011178;28;20204;-71
2021/07/25 05:42:38;;;;;;;28.83;20.70;;;19.40;99.90;;;;;;5011334;28;20201;-71
2021/07/25 05:45:07;;;;;;;24.17;18.50;;;19.40;99.90;;;;;;5010651;28;20215;-71
2021/07/25 05:47:34;;;;;;;26.08;20.25;;;19.60;99.90;;;;;;5010258;28;20452;-71
2021/07/25 05:50:03;;;;;;;29.90;20.27;;;20.00;99.90;;;;;;5011020;28;20200;-71
2021/07/25 05:52:45;;;;;;;23.52;17.08;;;19.90;99.90;;;;;;5010665;28;20231;-71
2021/07/25 05:55:12;;;;;;;27.83;17.08;;;20.00;99.90;;;;;;4993858;28;20204;-71
2021/07/25 05:57:39;;;;;;;25.38;16.70;;;19.90;99.90;;;;;;5008536;28;20635;-71
2021/07/25 06:00:07;;;;;;;22.30;16.38;;;19.90;99.90;;;;;;5013176;28;20207;-71
2021/07/25 06:02:48;;;;;;;23.15;16.42;;;19.90;99.90;;;;;;5009595;28;20200;-71
2021/07/25 06:05:17;;;;;;;24.95;16.10;;;19.90;99.90;;;;;;5017474;28;20196;-71
2021/07/25 06:07:44;;;;;;;25.42;17.80;;;19.80;99.90;;;;;;5034893;28;20230;-71
2021/07/25 06:10:12;;;;;;;23.45;17.27;;;19.90;99.90;;;;;;5019880;28;20200;-71
2021/07/25 06:12:38;;;;;;;23.77;16.90;;;20.10;99.90;;;;;;5014760;28;20630;-71
2021/07/25 06:15:06;;;;;;;21.40;16.27;;;20.10;99.90;;;;;;5015753;28;20227;-71
2021/07/25 06:17:33;;;;;;;21.85;16.27;;;20.10;99.90;;;;;;5015122;28;20196;-71
2021/07/25 06:20:00;;;;;;;23.13;17.15;;;20.00;99.90;;;;;;5015236;28;20204;-71
2021/07/25 06:22:37;;;;;;;21.63;16.55;;;20.30;99.90;;;;;;5014890;28;20288;-71
2021/07/25 06:25:04;;;;;;;25.75;16.70;;;20.10;99.90;;;;;;5013096;28;20195;-71
2021/07/25 06:27:31;;;;;;;20.85;15.52;;;20.10;99.90;;;;;;5011746;28;20216;-71
2021/07/25 06:29:58;;;;;;;23.50;15.82;;;20.20;99.90;;;;;;5014474;28;20196;-71
2021/07/25 06:32:25;;;;;;;21.60;15.15;;;20.20;99.90;;;;;;5010481;28;20275;-71
2021/07/25 06:34:52;;;;;;;24.10;14.88;;;20.40;99.90;;;;;;5009772;28;20207;-71
2021/07/25 06:37:18;;;;;;;20.40;15.10;;;20.30;99.90;;;;;;5008634;28;20200;-71
2021/07/25 06:39:47;;;;;;;18.85;13.82;;;20.20;99.90;;;;;;5022592;28;20214;-71
2021/07/25 06:42:14;;;;;;;23.38;15.00;;;20.30;99.90;;;;;;5012001;28;20200;-71
2021/07/25 06:44:40;;;;;;;20.90;15.55;;;20.30;99.90;;;;;;5010633;28;20583;-71
2021/07/25 06:47:07;;;;;;;21.05;15.23;;;20.40;99.90;;;;;;5014214;28;20228;-71
2021/07/25 06:49:34;;;;;;;22.73;16.25;;;20.40;99.90;;;;;;5013529;28;20205;-71
2021/07/25 06:52:05;;;;;;;21.13;15.05;;;20.50;99.90;;;;;;5014485;28;20557;-71
2021/07/25 06:54:32;;;;;;;20.65;14.57;;;20.70;99.90;;;;;;5014370;28;20669;-71
2021/07/25 06:57:00;;;;;;;21.10;14.20;;;20.70;99.90;;;;;;5014759;28;20200;-71
2021/07/25 06:59:27;;;;;;;20.80;14.38;;;20.80;99.90;;;;;;5014031;28;20204;-71
2021/07/25 07:01:54;;;;;;;20.40;14.05;;;20.70;99.90;;;;;;5009592;28;20259;-71
2021/07/25 07:04:21;;;;;;;22.33;15.43;;;20.60;99.90;;;;;;5019734;28;20602;-71
2021/07/25 07:06:48;;;;;;;21.25;14.63;;;20.60;99.90;;;;;;5012805;28;20308;-71
2021/07/25 07:09:15;;;;;;;21.55;14.27;;;20.70;99.90;;;;;;5012217;28;20200;-71
2021/07/25 07:11:42;;;;;;;19.67;12.80;;;20.70;99.90;;;;;;5012622;28;20201;-71
2021/07/25 07:14:10;;;;;;;17.95;13.43;;;20.70;99.90;;;;;;5014265;28;20216;-71
2021/07/25 07:16:37;;;;;;;19.33;13.93;;;20.90;99.90;;;;;;5009791;28;20679;-71
2021/07/25 07:19:04;;;;;;;18.00;13.27;;;20.90;99.90;;;;;;5013440;28;20196;-71
2021/07/25 07:21:31;;;;;;;20.45;13.48;;;21.00;99.90;;;;;;5013761;28;20205;-71
2021/07/25 07:23:58;;;;;;;20.02;13.40;;;21.10;99.90;;;;;;5012910;28;20226;-71
2021/07/25 07:26:24;;;;;;;18.33;13.10;;;21.10;99.90;;;;;;5013504;28;20201;-71
2021/07/25 07:28:52;;;;;;;20.00;13.70;;;21.20;99.90;;;;;;5013842;28;20681;-71
2021/07/25 07:31:20;;;;;;;15.07;11.38;;;21.20;99.90;;;;;;5014078;28;20226;-71
2021/07/25 07:33:47;;;;;;;21.80;12.60;;;21.30;99.90;;;;;;5009143;28;20208;-71
2021/07/25 07:36:13;;;;;;;17.90;12.90;;;21.30;99.90;;;;;;5012674;28;20570;-71
2021/07/25 07:38:40;;;;;;;17.35;12.27;;;21.40;99.90;;;;;;5011524;28;20203;-71
2021/07/25 07:41:07;;;;;;;16.00;11.45;;;21.30;99.90;;;;;;5011155;28;20215;-71
2021/07/25 07:43:34;;;;;;;16.02;11.85;;;21.40;99.90;;;;;;5013379;28;20208;-71
2021/07/25 07:46:01;;;;;;;18.30;11.88;;;21.40;99.90;;;;;;5014901;28;20576;-71
2021/07/25 07:48:29;;;;;;;17.73;11.80;;;21.50;99.90;;;;;;5010900;28;20238;-71
2021/07/25 07:50:56;;;;;;;15.98;11.38;;;21.60;99.90;;;;;;5012979;28;20203;-71
2021/07/25 07:53:23;;;;;;;15.43;11.63;;;21.60;99.90;;;;;;5013665;28;20210;-71
2021/07/25 07:55:50;;;;;;;16.10;11.43;;;21.70;99.90;;;;;;5012964;28;20242;-71
2021/07/25 07:58:16;;;;;;;17.05;11.98;;;21.80;99.90;;;;;;5013342;28;20208;-71
2021/07/25 08:00:44;;;;;;;17.48;11.48;;;21.80;99.90;;;;;;5000871;28;20208;-71
2021/07/25 08:03:11;;;;;;;17.40;11.32;;;21.80;99.90;;;;;;5006604;28;20208;-71
2021/07/25 08:05:39;;;;;;;14.77;10.98;;;22.00;99.90;;;;;;5007721;28;20209;-71
2021/07/25 08:08:07;;;;;;;15.90;11.85;;;21.90;99.90;;;;;;5004323;28;20312;-71
2021/07/25 08:10:34;;;;;;;15.68;11.25;;;22.00;99.90;;;;;;5009537;28;20209;-71
2021/07/25 08:13:01;;;;;;;14.35;11.40;;;22.10;99.90;;;;;;5009554;28;20294;-71
2021/07/25 08:15:28;;;;;;;18.35;11.63;;;22.10;99.90;;;;;;5009349;28;20573;-71
2021/07/25 08:17:55;;;;;;;13.90;10.52;;;22.20;99.90;;;;;;5008942;28;20204;-71
2021/07/25 08:20:22;;;;;;;16.20;11.48;;;22.20;99.90;;;;;;5009505;28;20555;-71
2021/07/25 08:22:51;;;;;;;15.13;12.30;;;22.30;99.90;;;;;;5007026;28;20200;-71
2021/07/25 08:25:18;;;;;;;17.48;11.95;;;22.30;99.90;;;;;;5021363;28;20216;-71
2021/07/25 08:27:45;;;;;;;15.57;11.55;;;22.40;99.90;;;;;;5009991;28;20232;-71
2021/07/25 08:30:12;;;;;;;15.73;12.18;;;22.60;99.90;;;;;;5008707;28;20431;-71
2021/07/25 08:32:40;;;;;;;14.93;10.98;;;22.70;99.90;;;;;;5009054;28;20568;-71
2021/07/25 08:35:07;;;;;;;16.00;11.15;;;22.80;99.90;;;;;;5007898;28;20677;-72
2021/07/25 08:37:35;;;;;;;15.23;11.70;;;22.80;99.90;;;;;;5006191;28;20209;-71
2021/07/25 08:40:05;;;;;;;17.42;11.18;;;22.70;99.90;;;;;;5008782;28;20216;-71
2021/07/25 08:42:37;;;;;;;15.88;10.82;;;22.90;99.90;;;;;;5007442;28;20299;-72
2021/07/25 08:45:06;;;;;;;15.80;10.88;;;23.10;99.90;;;;;;5015832;28;20729;-71
2021/07/25 08:47:41;;;;;;;17.38;10.88;;;23.00;99.90;;;;;;5008492;28;20216;-72
2021/07/25 08:50:13;;;;;;;14.82;10.80;;;23.00;99.90;;;;;;5013641;28;20200;-71
2021/07/25 08:52:43;;;;;;;14.32;9.82;;;22.90;99.90;;;;;;5006954;28;20206;-71
2021/07/25 08:55:14;;;;;;;13.90;10.02;;;23.00;99.90;;;;;;5008577;28;20212;-71
2021/07/25 08:57:43;;;;;;;13.38;9.82;;;23.00;99.90;;;;;;5013762;28;20200;-71
2021/07/25 09:00:12;;;;;;;15.20;10.45;;;23.10;99.90;;;;;;5010680;28;20218;-71
2021/07/25 09:02:40;;;;;;;12.23;9.30;;;23.20;99.90;;;;;;5008929;28;20224;-71
2021/07/25 09:05:10;;;;;;;12.40;9.32;;;23.40;99.90;;;;;;5004891;28;20301;-72
2021/07/25 09:07:39;;;;;;;12.77;9.35;;;23.80;99.90;;;;;;5007879;28;20204;-72
2021/07/25 09:10:09;;;;;;;13.30;9.68;;;24.10;99.90;;;;;;5002088;28;21027;-71
2021/07/25 09:12:38;;;;;;;12.05;8.85;;;24.20;99.90;;;;;;5009671;28;20213;-72
2021/07/25 09:15:08;;;;;;;12.23;9.35;;;24.50;99.90;;;;;;5007286;28;20254;-72
2021/07/25 09:17:35;;;;;;;12.25;9.23;;;24.70;99.90;;;;;;5009330;28;20859;-72
2021/07/25 09:20:15;;;;;;;11.68;8.70;;;24.80;99.90;;;;;;5006624;28;20757;-72
2021/07/25 09:23:00;;;;;;;11.43;8.27;;;25.30;99.90;;;;;;5009677;28;20820;-72
2021/07/25 09:25:33;;;;;;;11.27;8.70;;;25.40;99.90;;;;;;5009371;28;20200;-72
2021/07/25 09:28:22;;;;;;;9.88;8.10;;;24.70;99.90;;;;;;5007364;28;20228;-71
2021/07/25 09:30:50;;;;;;;11.48;8.35;;;24.60;99.90;;;;;;5004497;28;20296;-72
2021/07/25 09:33:28;;;;;;;10.82;8.55;;;24.40;99.90;;;;;;5012749;28;20218;-72
2021/07/25 09:36:07;;;;;;;12.15;9.30;;;24.30;99.90;;;;;;5009521;28;20711;-72
2021/07/25 09:38:35;;;;;;;10.32;8.52;;;24.10;99.90;;;;;;5013341;28;20203;-72
2021/07/25 09:41:02;;;;;;;12.98;9.13;;;23.90;99.90;;;;;;5012822;28;20304;-72
2021/07/25 09:43:31;;;;;;;11.60;8.50;;;23.90;99.90;;;;;;5011243;28;20254;-72
2021/07/25 09:46:00;;;;;;;12.52;9.18;;;23.80;99.90;;;;;;5012402;28;20204;-72
2021/07/25 09:48:29;;;;;;;13.82;9.05;;;23.70;99.90;;;;;;5012745;28;20656;-72
2021/07/25 09:50:59;;;;;;;13.98;9.98;;;23.80;99.90;;;;;;5011679;28;20809;-72
2021/07/25 09:53:43;;;;;;;10.88;9.40;;;23.70;99.90;;;;;;5009931;28;20780;-72
2021/07/25 09:56:14;;;;;;;13.70;9.57;;;23.80;99.90;;;;;;5009090;28;20552;-72
2021/07/25 09:58:44;;;;;;;11.55;9.00;;;23.90;99.90;;;;;;4999069;28;20216;-72
2021/07/25 10:01:11;;;;;;;11.80;9.45;;;23.90;99.90;;;;;;5011591;28;20212;-72
2021/07/25 10:03:38;;;;;;;11.55;8.95;;;24.00;99.90;;;;;;5010528;28;20219;-72
2021/07/25 10:06:22;;;;;;;12.80;8.93;;;24.00;99.90;;;;;;5011036;28;20212;-72
2021/07/25 10:08:48;;;;;;;11.73;8.10;;;24.10;99.90;;;;;;5006721;28;20682;-72
2021/07/25 10:11:19;;;;;;;11.13;8.20;;;24.10;99.90;;;;;;5011246;28;20211;-72
2021/07/25 10:13:50;;;;;;;10.95;8.27;;;24.40;99.90;;;;;;5011767;28;20220;-72
2021/07/25 10:16:19;;;;;;;10.63;8.25;;;24.40;99.90;;;;;;5014132;28;20210;-72
2021/07/25 10:18:48;;;;;;;10.88;8.38;;;24.50;99.90;;;;;;5010130;28;20251;-72
2021/07/25 10:21:17;;;;;;;11.38;9.02;;;24.70;99.90;;;;;;5013808;28;20204;-72
2021/07/25 10:23:50;;;;;;;11.43;8.25;;;25.20;99.90;;;;;;5011597;28;21916;-72
2021/07/25 10:26:18;;;;;;;11.68;8.23;;;25.70;99.90;;;;;;5016166;28;20277;-72
2021/07/25 10:28:48;;;;;;;9.85;7.60;;;25.90;99.90;;;;;;5019858;28;20588;-72
2021/07/25 10:31:18;;;;;;;9.50;7.82;;;25.70;99.90;;;;;;5011694;28;20216;-72
2021/07/25 10:33:49;;;;;;;9.52;7.57;;;25.80;99.90;;;;;;5011000;28;20204;-72
2021/07/25 10:36:18;;;;;;;10.25;7.97;;;25.90;99.90;;;;;;5011655;28;20204;-72
2021/07/25 10:38:46;;;;;;;9.95;7.93;;;26.30;99.90;;;;;;5010821;28;20704;-72
2021/07/25 10:41:17;;;;;;;11.40;7.63;;;26.60;99.90;;;;;;5009108;28;20204;-72
2021/07/25 10:43:44;;;;;;;10.10;8.07;;;26.50;99.90;;;;;;5011456;28;20216;-72
2021/07/25 10:46:21;;;;;;;11.32;7.90;;;26.60;99.90;;;;;;5016855;28;20212;-72
2021/07/25 10:49:17;;;;;;;11.80;7.80;;;26.90;99.90;;;;;;5009593;28;20235;-72
2021/07/25 10:52:01;;;;;;;9.63;7.60;;;27.10;99.90;;;;;;5007254;28;20227;-72
2021/07/25 10:54:49;;;;;;;9.80;7.88;;;26.20;99.90;;;;;;5011586;28;20216;-72
2021/07/25 10:57:17;;;;;;;9.48;7.60;;;26.30;99.90;;;;;;5006402;28;20206;-72
2021/07/25 10:59:48;;;;;;;9.65;7.35;;;26.10;99.90;;;;;;5009780;28;20227;-72
2021/07/25 11:02:52;;;;;;;10.25;8.13;;;25.90;99.90;;;;;;5013820;28;20200;-72
2021/07/25 11:05:19;;;;;;;10.55;7.60;;;25.70;99.90;;;;;;5004152;28;20200;-72
2021/07/25 11:07:58;;;;;;;11.27;8.50;;;25.50;99.90;;;;;;5008647;28;20216;-72
2021/07/25 11:10:35;;;;;;;9.73;7.82;;;25.40;99.90;;;;;;5009928;28;20205;-72
2021/07/25 11:13:17;;;;;;;11.02;8.23;;;25.40;99.90;;;;;;5008645;28;20749;-72
2021/07/25 11:15:45;;;;;;;11.38;8.60;;;24.90;99.90;;;;;;5008183;28;20220;-72
2021/07/25 11:18:29;;;;;;;10.15;8.27;;;24.80;99.90;;;;;;5007272;28;20208;-72
2021/07/25 11:20:59;;;;;;;9.98;8.48;;;25.00;99.90;;;;;;5056805;22;20269;-73
2021/07/25 11:23:37;;;;;;;10.48;8.38;;;24.90;99.90;;;;;;5038240;28;20286;-73
2021/07/25 11:26:36;;;;;;;9.23;7.68;;;25.00;99.90;;;;;;5046490;28;20521;-73
2021/07/25 11:29:06;;;;;;;10.80;8.15;;;24.70;99.90;;;;;;5047569;28;20258;-73
2021/07/25 11:31:44;;;;;;;9.65;7.90;;;24.50;99.90;;;;;;5046003;28;20747;-72
2021/07/25 11:34:15;;;;;;;9.32;7.63;;;24.60;99.90;;;;;;5044040;28;20198;-73
2021/07/25 11:36:43;;;;;;;10.63;7.28;;;24.60;99.90;;;;;;5039257;28;20207;-73
2021/07/25 11:39:12;;;;;;;8.63;6.95;;;24.70;99.90;;;;;;5038598;28;20192;-73
2021/07/25 11:41:40;;;;;;;8.90;6.78;;;25.00;99.90;;;;;;5045406;28;20207;-72
2021/07/25 11:44:09;;;;;;;8.60;6.47;;;25.20;99.90;;;;;;5045766;28;20679;-73
2021/07/25 11:46:38;;;;;;;11.38;7.05;;;25.20;99.90;;;;;;5028874;28;20688;-73
2021/07/25 11:49:11;;;;;;;9.23;5.95;;;25.30;99.90;;;;;;5032635;28;20234;-73
2021/07/25 11:51:42;;;;;;;8.70;6.90;;;25.50;99.90;;;;;;5032201;28;20199;-73
2021/07/25 11:54:10;;;;;;;8.82;6.60;;;25.60;99.90;;;;;;5048217;28;20203;-73
2021/07/25 11:56:37;;;;;;;9.05;7.57;;;26.00;99.90;;;;;;5052198;28;20206;-72
2021/07/25 11:59:06;;;;;;;10.27;7.30;;;26.70;99.90;;;;;;5053012;28;20199;-72
2021/07/25 12:01:34;;;;;;;8.43;6.82;;;27.10;99.90;;;;;;5035374;28;20215;-73
2021/07/25 12:04:18;;;;;;;9.40;7.35;;;27.60;99.90;;;;;;5032803;28;20199;-73
2021/07/25 12:06:47;;;;;;;6.93;6.22;;;27.70;99.90;;;;;;5048669;28;20649;-73
2021/07/25 12:09:13;;;;;;;10.73;7.30;;;27.90;99.90;;;;;;5044601;28;20681;-73
2021/07/25 12:11:41;;;;;;;8.38;7.30;;;28.20;99.90;;;;;;5032234;28;20203;-73
2021/07/25 12:14:08;;;;;;;10.15;7.22;;;28.40;99.90;;;;;;5038066;28;20245;-72
2021/07/25 12:16:45;;;;;;;10.73;7.70;;;27.70;99.90;;;;;;5052855;28;20306;-72
2021/07/25 12:19:14;;;;;;;8.75;7.10;;;27.80;99.90;;;;;;5040031;28;20196;-72
2021/07/25 12:21:40;;;;;;;8.05;6.18;;;28.30;99.90;;;;;;5044869;28;20218;-72
2021/07/25 12:24:27;;;;;;;8.10;6.35;;;28.30;99.90;;;;;;5042465;28;20198;-72
2021/07/25 12:26:54;;;;;;;6.50;5.75;;;28.50;99.90;;;;;;5041407;28;20203;-72
2021/07/25 12:29:41;;;;;;;9.82;6.38;;;28.70;99.90;;;;;;5051531;28;20698;-73
2021/07/25 12:32:35;;;;;;;8.18;6.32;;;28.70;99.90;;;;;;5042107;28;20571;-73
2021/07/25 12:35:22;;;;;;;7.85;6.65;;;29.00;99.90;;;;;;5000540;28;20283;-73
2021/07/25 12:37:51;;;;;;;6.65;5.80;;;28.80;99.90;;;;;;5032445;28;20679;-73
2021/07/25 12:40:21;;;;;;;6.05;5.20;;;28.50;99.90;;;;;;5031859;28;20257;-73
2021/07/25 12:42:51;;;;;;;8.75;5.90;;;29.10;99.90;;;;;;5032580;28;20262;-72